Estación Meteorológica Peña el Pijo (Robertgarden) [ 12/09/19 16:51:32 CET ]

Fecha Hora Presion(HPa) Temp (°C) Humedad % Rocio (°C) Viento ( m/s) Direccion Lluvia 1Hora(mm) Lluvia 24H(mm) LLuvia Total(mm)
2019-Nov-14 01:01:51 1001.300 9.4 68 3.8       0.51 25.38
2019-Nov-14 02:03:16 1000.200 9.3 70 4.1       0.51 25.38
2019-Nov-14 03:01:54 999.000 9.6 68 4.0 2.3 NW   0.51 25.38
2019-Nov-14 04:01:59 998.000 9.9 61 2.7 4.9 NNW   0.51 25.38
2019-Nov-14 05:01:34 996.900 9.6 61 2.4 2.0 N     25.38
2019-Nov-14 06:01:39 996.000 9.1 63 2.4 2.3 NW     25.38
2019-Nov-14 07:01:35 995.900 8.8 63 2.1 1.8 NNE     25.38
2019-Nov-14 08:01:40 995.300 8.3 64 1.9 5.1 NNE     25.38
2019-Nov-14 09:02:05 995.100 7.9 62 1.0         25.38
2019-Nov-14 10:01:58 994.700 8.9 64 2.4         25.38
2019-Nov-14 11:01:51 994.200 10.5 64 3.9         25.38
2019-Nov-14 12:01:51 993.300 9.3 68 3.7         25.38
2019-Nov-14 13:01:52 992.300 10.3 67 4.4 2.2 NW     25.38
2019-Nov-14 14:01:47 992.700 7.6 75 3.4         25.38
2019-Nov-14 15:01:59 993.400 3.9 80 0.8     1.03 1.03 26.41
2019-Nov-14 16:01:53 993.200 4.8 79 1.4       1.03 26.41
2019-Nov-14 17:01:43 993.300 4.4 78 0.9       1.03 26.41
2019-Nov-14 18:01:35 993.100 3.6 81 0.7       1.03 26.41
2019-Nov-14 19:02:01 993.500 4.2 79 0.9       1.03 26.41
2019-Nov-14 20:02:02 994.100 4.6 76 0.7       1.03 26.41
2019-Nov-14 21:01:39 993.900 4.4 75 0.3 1.5 N   1.03 26.41
2019-Nov-14 22:02:01 993.800 4.5 75 0.4 0.7 N   1.03 26.41
2019-Nov-14 23:01:51 993.800 2.9 80 -0.2       1.03 26.41

Temperatura Máxima:10°    Temperatura Mínima:
Presión Máxima:1001.300 Hpa    Presión Mínima:992.300 Hpa


Volver